Time;durP1;ratioP1;P1;durP2;ratioP2;P2;SDS_P1;SDS_P2;PMS_P1;PMS_P2;Temp;Humidity;BMP_temperature;BMP_pressure;BME280_temperature;BME280_humidity;BME280_pressure;Samples;Min_cycle;Max_cycle;Signal;HPM_P1;HPM_P2
2021/08/09 00:00:54;;;;;;;1.50;1.40;;;24.30;57.00;;;;;;5080632;28;20033;-37
2021/08/09 00:03:21;;;;;;;1.65;1.48;;;24.30;56.90;;;;;;5063499;28;20021;-37
2021/08/09 00:05:47;;;;;;;1.50;1.40;;;24.20;56.90;;;;;;5064526;28;20017;-37
2021/08/09 00:08:13;;;;;;;1.50;1.30;;;24.20;57.00;;;;;;5064676;28;20471;-37
2021/08/09 00:10:40;;;;;;;1.17;1.08;;;24.20;57.00;;;;;;5064425;28;20089;-37
2021/08/09 00:13:06;;;;;;;1.40;1.30;;;24.10;56.90;;;;;;5062520;28;20029;-37
2021/08/09 00:15:32;;;;;;;1.50;1.30;;;24.10;57.00;;;;;;5064535;28;20036;-37
2021/08/09 00:17:58;;;;;;;2.00;1.70;;;24.10;57.10;;;;;;5064634;28;20025;-37
2021/08/09 00:20:24;;;;;;;1.50;1.33;;;24.10;57.30;;;;;;5047346;28;20026;-37
2021/08/09 00:22:50;;;;;;;1.23;1.13;;;24.10;57.30;;;;;;5044010;28;20180;-36
2021/08/09 00:25:17;;;;;;;1.38;1.20;;;24.00;57.10;;;;;;5044353;28;20053;-37
2021/08/09 00:27:43;;;;;;;1.58;1.48;;;24.00;57.30;;;;;;5044409;28;20033;-37
2021/08/09 00:30:10;;;;;;;1.63;1.50;;;24.00;57.20;;;;;;5044259;28;20055;-37
2021/08/09 00:32:36;;;;;;;1.42;1.33;;;24.00;57.40;;;;;;5062373;28;20037;-37
2021/08/09 00:35:03;;;;;;;1.63;1.52;;;24.00;57.40;;;;;;5064166;28;20028;-37
2021/08/09 00:37:29;;;;;;;1.13;1.02;;;23.90;57.20;;;;;;5063632;28;20025;-37
2021/08/09 00:39:56;;;;;;;1.50;1.40;;;23.90;57.50;;;;;;5065759;28;20054;-37
2021/08/09 00:42:22;;;;;;;1.60;1.50;;;23.90;57.20;;;;;;5064511;28;20043;-36
2021/08/09 00:44:48;;;;;;;1.52;1.42;;;23.80;57.30;;;;;;5064173;28;20017;-37
2021/08/09 00:47:14;;;;;;;1.55;1.45;;;23.80;57.30;;;;;;5064021;28;20037;-37
2021/08/09 00:49:40;;;;;;;1.80;1.45;;;23.80;57.30;;;;;;5063667;28;20429;-37
2021/08/09 00:52:06;;;;;;;1.40;1.30;;;23.70;57.30;;;;;;5063509;28;20092;-37
2021/08/09 00:54:33;;;;;;;2.17;1.27;;;23.70;57.20;;;;;;5062553;28;20025;-37
2021/08/09 00:57:02;;;;;;;1.60;1.50;;;23.70;57.50;;;;;;5063897;28;20036;-37
2021/08/09 00:59:29;;;;;;;1.38;1.27;;;23.60;57.40;;;;;;5062517;28;20025;-37
2021/08/09 01:01:55;;;;;;;1.50;1.40;;;23.60;57.20;;;;;;5062281;28;20025;-37
2021/08/09 01:04:21;;;;;;;1.48;1.38;;;23.60;57.30;;;;;;5063502;28;20021;-37
2021/08/09 01:06:48;;;;;;;1.52;1.42;;;23.60;57.40;;;;;;5071318;28;20025;-37
2021/08/09 01:09:28;;;;;;;1.58;1.30;;;23.60;57.50;;;;;;5083561;28;20110;-37
2021/08/09 01:12:13;;;;;;;1.70;1.60;;;23.60;57.40;;;;;;5082181;28;20032;-37
2021/08/09 01:14:51;;;;;;;1.50;1.33;;;23.50;57.50;;;;;;5083492;28;20036;-36
2021/08/09 01:17:18;;;;;;;1.45;1.35;;;23.50;57.60;;;;;;5082156;28;20033;-37
2021/08/09 01:20:02;;;;;;;1.63;1.48;;;23.50;58.30;;;;;;5081935;28;20038;-37
2021/08/09 01:22:52;;;;;;;1.50;1.40;;;23.50;58.60;;;;;;5079525;28;20182;-37
2021/08/09 01:25:43;;;;;;;1.50;1.38;;;23.50;58.60;;;;;;5083149;28;20107;-37
2021/08/09 01:28:09;;;;;;;1.50;1.40;;;23.50;58.70;;;;;;5083192;28;20036;-37
2021/08/09 01:30:36;;;;;;;1.52;1.42;;;23.50;58.50;;;;;;5081695;28;20028;-37
2021/08/09 01:33:02;;;;;;;1.75;1.35;;;23.50;58.70;;;;;;5078486;28;20033;-37
2021/08/09 01:35:29;;;;;;;1.52;1.42;;;23.50;59.30;;;;;;5078435;28;20033;-37
2021/08/09 01:37:56;;;;;;;2.05;1.30;;;23.50;58.80;;;;;;5078557;28;20035;-37
2021/08/09 01:40:23;;;;;;;1.50;1.40;;;23.50;58.90;;;;;;5081831;28;20029;-37
2021/08/09 01:42:49;;;;;;;1.70;1.60;;;23.50;59.00;;;;;;5082960;28;20054;-37
2021/08/09 01:45:16;;;;;;;2.15;1.88;;;23.60;59.30;;;;;;5081818;28;20412;-37
2021/08/09 01:47:42;;;;;;;1.67;1.58;;;23.60;59.50;;;;;;5082818;28;20485;-37
2021/08/09 01:50:10;;;;;;;1.40;1.30;;;23.60;59.80;;;;;;5072079;28;20037;-37
2021/08/09 01:52:38;;;;;;;1.50;1.38;;;23.60;60.20;;;;;;5061333;28;20794;-37
2021/08/09 01:55:05;;;;;;;1.55;1.45;;;23.70;60.70;;;;;;5044671;28;20029;-37
2021/08/09 01:57:31;;;;;;;1.63;1.52;;;23.70;61.00;;;;;;5063031;28;20393;-37
2021/08/09 01:59:57;;;;;;;1.50;1.40;;;23.70;60.90;;;;;;5062795;28;20037;-37
2021/08/09 02:02:27;;;;;;;1.67;1.58;;;23.70;61.10;;;;;;5062641;28;20065;-37
2021/08/09 02:04:53;;;;;;;1.75;1.52;;;23.70;61.20;;;;;;5062437;28;20051;-37
2021/08/09 02:07:19;;;;;;;1.70;1.60;;;23.80;61.50;;;;;;5074749;28;20044;-37
2021/08/09 02:09:45;;;;;;;2.10;1.90;;;23.80;61.60;;;;;;5081318;28;20027;-38
2021/08/09 02:12:11;;;;;;;1.60;1.50;;;23.80;61.70;;;;;;5081593;28;20029;-37
2021/08/09 02:14:41;;;;;;;1.70;1.60;;;23.80;61.60;;;;;;5082444;28;20044;-41
2021/08/09 02:17:09;;;;;;;1.70;1.52;;;23.80;61.80;;;;;;5081074;28;20025;-37
2021/08/09 02:19:55;;;;;;;;;;;23.90;61.90;;;;;;5081722;28;20025;-37
2021/08/09 02:22:54;;;;;;;1.95;1.70;;;23.90;62.00;;;;;;5081887;28;20007;-37
2021/08/09 02:25:22;;;;;;;1.60;1.50;;;23.90;61.90;;;;;;5039416;28;20044;-37
2021/08/09 02:27:53;;;;;;;1.70;1.60;;;23.90;62.00;;;;;;5039986;28;20041;-37
2021/08/09 02:30:21;;;;;;;1.95;1.75;;;23.90;62.00;;;;;;5007319;28;20029;-37
2021/08/09 02:32:48;;;;;;;1.98;1.77;;;23.90;62.00;;;;;;5020119;28;20034;-37
2021/08/09 02:35:16;;;;;;;1.40;1.25;;;23.90;62.10;;;;;;5021196;28;20648;-37
2021/08/09 02:37:43;;;;;;;1.40;1.30;;;24.00;62.20;;;;;;5038866;28;20033;-37
2021/08/09 02:40:10;;;;;;;1.98;1.70;;;24.00;62.30;;;;;;5027039;28;20081;-37
2021/08/09 02:42:36;;;;;;;2.00;1.75;;;24.00;62.40;;;;;;5023807;28;20037;-37
2021/08/09 02:45:03;;;;;;;2.93;1.87;;;24.00;62.60;;;;;;5026977;28;20067;-37
2021/08/09 02:47:30;;;;;;;1.90;1.80;;;24.00;62.50;;;;;;5026518;28;20302;-37
2021/08/09 02:49:56;;;;;;;;;;;24.00;62.50;;;;;;5027333;28;20057;-37
2021/08/09 02:52:22;;;;;;;1.75;1.60;;;24.00;62.70;;;;;;5043303;28;19909;-37
2021/08/09 02:54:48;;;;;;;1.85;1.58;;;24.10;62.80;;;;;;5009984;28;20039;-37
2021/08/09 02:57:15;;;;;;;2.37;1.60;;;24.10;62.80;;;;;;5043140;28;20112;-37
2021/08/09 02:59:41;;;;;;;2.20;2.00;;;24.10;62.90;;;;;;5026760;28;20272;-37
2021/08/09 03:02:07;;;;;;;2.05;1.80;;;24.10;63.00;;;;;;5071676;28;20032;-37
2021/08/09 03:04:35;;;;;;;2.38;2.17;;;24.10;62.80;;;;;;5064246;28;20025;-37
2021/08/09 03:07:05;;;;;;;2.22;2.03;;;24.10;62.80;;;;;;5074123;28;20429;-37
2021/08/09 03:09:34;;;;;;;2.42;2.22;;;24.10;62.80;;;;;;5084282;28;20533;-37
2021/08/09 03:12:00;;;;;;;2.22;2.03;;;24.10;62.80;;;;;;5085544;28;20027;-37
2021/08/09 03:14:27;;;;;;;2.22;2.03;;;24.20;62.80;;;;;;5084050;28;20033;-37
2021/08/09 03:16:53;;;;;;;;;;;24.20;62.90;;;;;;5085915;28;20036;-37
2021/08/09 03:19:19;;;;;;;2.50;2.05;;;24.20;62.90;;;;;;5085751;28;19915;-37
2021/08/09 03:21:53;;;;;;;1.88;1.70;;;24.20;62.80;;;;;;5085300;28;20215;-37
2021/08/09 03:24:20;;;;;;;2.13;1.92;;;24.20;62.90;;;;;;5081948;28;20027;-37
2021/08/09 03:26:46;;;;;;;2.20;2.00;;;24.20;62.90;;;;;;5085365;28;20032;-37
2021/08/09 03:29:13;;;;;;;2.28;2.08;;;24.20;62.90;;;;;;5084082;28;20111;-37
2021/08/09 03:31:39;;;;;;;2.10;1.90;;;24.30;63.10;;;;;;5073663;28;20446;-37
2021/08/09 03:34:05;;;;;;;2.38;2.17;;;24.20;63.00;;;;;;5063760;28;20031;-37
2021/08/09 03:36:31;;;;;;;2.30;2.10;;;24.30;63.90;;;;;;5059518;28;20049;-37
2021/08/09 03:38:58;;;;;;;2.20;2.00;;;24.30;63.20;;;;;;5044897;28;20029;-37
2021/08/09 03:41:24;;;;;;;2.50;2.30;;;24.30;63.30;;;;;;5045150;28;20075;-37
2021/08/09 03:43:50;;;;;;;2.00;1.80;;;24.30;63.20;;;;;;5045209;28;20041;-37
2021/08/09 03:46:16;;;;;;;3.25;2.40;;;24.30;63.30;;;;;;5043311;28;20039;-37
2021/08/09 03:48:42;;;;;;;2.15;1.95;;;24.30;63.30;;;;;;5044864;28;20094;-37
2021/08/09 03:51:08;;;;;;;2.40;2.20;;;24.30;63.20;;;;;;5044839;28;20036;-37
2021/08/09 03:53:34;;;;;;;2.10;1.90;;;24.30;63.30;;;;;;5082513;28;20025;-37
2021/08/09 03:56:01;;;;;;;2.60;2.40;;;24.30;63.30;;;;;;5084444;28;20054;-37
2021/08/09 03:58:27;;;;;;;2.65;2.35;;;24.30;63.40;;;;;;5084553;28;20074;-37
2021/08/09 04:00:53;;;;;;;2.88;2.40;;;24.30;63.40;;;;;;5080422;28;20040;-37
2021/08/09 04:03:19;;;;;;;2.58;2.38;;;24.40;63.50;;;;;;5064684;28;20025;-37
2021/08/09 04:05:45;;;;;;;2.60;2.40;;;24.40;63.50;;;;;;5064330;28;20021;-37
2021/08/09 04:08:11;;;;;;;2.50;2.30;;;24.40;63.60;;;;;;5084013;28;20131;-37
2021/08/09 04:10:39;;;;;;;2.25;2.05;;;24.40;63.60;;;;;;5084469;28;20091;-38
2021/08/09 04:13:05;;;;;;;3.20;2.30;;;24.40;63.50;;;;;;5084411;28;20032;-37
2021/08/09 04:15:31;;;;;;;2.20;2.00;;;24.40;63.50;;;;;;5084080;28;20025;-38
2021/08/09 04:17:57;;;;;;;2.45;2.25;;;24.40;63.50;;;;;;5084436;28;20025;-38
2021/08/09 04:20:23;;;;;;;2.55;2.35;;;24.40;63.50;;;;;;5084188;28;20036;-37
2021/08/09 04:22:51;;;;;;;2.20;2.00;;;24.40;63.60;;;;;;5083980;28;20044;-37
2021/08/09 04:25:17;;;;;;;2.15;1.95;;;24.40;63.60;;;;;;5083776;28;20118;-37
2021/08/09 04:27:43;;;;;;;2.90;2.40;;;24.40;63.60;;;;;;5082692;28;20052;-37
2021/08/09 04:30:10;;;;;;;2.50;2.17;;;24.50;63.60;;;;;;5083952;28;20047;-37
2021/08/09 04:32:40;;;;;;;2.53;2.33;;;24.50;63.70;;;;;;5065743;28;20470;-38
2021/08/09 04:35:07;;;;;;;2.85;2.55;;;24.50;63.70;;;;;;5063756;28;20033;-37
2021/08/09 04:37:33;;;;;;;2.65;2.35;;;24.50;63.60;;;;;;5049336;28;20022;-37
2021/08/09 04:40:00;;;;;;;2.83;2.53;;;24.50;63.70;;;;;;5043760;28;20024;-37
2021/08/09 04:42:26;;;;;;;2.95;2.53;;;24.50;63.80;;;;;;5076043;28;20036;-37
2021/08/09 04:44:52;;;;;;;2.47;2.28;;;24.50;63.80;;;;;;5083682;28;20059;-37
2021/08/09 04:47:18;;;;;;;2.70;2.50;;;24.50;64.00;;;;;;5083411;28;20037;-37
2021/08/09 04:49:45;;;;;;;2.97;2.42;;;24.50;64.00;;;;;;5083719;28;20103;-37
2021/08/09 04:52:11;;;;;;;3.10;2.70;;;24.50;64.70;;;;;;5083367;28;20028;-37
2021/08/09 04:54:37;;;;;;;2.88;2.67;;;24.50;64.00;;;;;;5083508;28;20028;-37
2021/08/09 04:57:03;;;;;;;2.55;2.30;;;24.50;64.20;;;;;;5083341;28;20021;-37
2021/08/09 04:59:29;;;;;;;2.75;2.53;;;24.50;64.10;;;;;;5083184;28;20039;-37
2021/08/09 05:01:55;;;;;;;2.92;2.72;;;24.50;64.10;;;;;;5070897;28;20031;-37
2021/08/09 05:04:21;;;;;;;2.83;2.60;;;24.50;64.10;;;;;;5063290;28;20032;-37
2021/08/09 05:06:49;;;;;;;3.20;2.90;;;24.50;64.00;;;;;;5071084;28;20154;-37
2021/08/09 05:09:15;;;;;;;2.97;2.67;;;24.50;64.10;;;;;;5083094;28;20044;-38
2021/08/09 05:11:42;;;;;;;2.70;2.50;;;24.50;64.10;;;;;;5083401;28;20108;-37
2021/08/09 05:14:08;;;;;;;2.80;2.60;;;24.50;64.10;;;;;;5083028;28;20033;-37
2021/08/09 05:16:36;;;;;;;3.10;2.80;;;24.50;64.10;;;;;;5081711;28;20025;-37
2021/08/09 05:19:03;;;;;;;3.10;2.80;;;24.50;64.10;;;;;;5083213;28;20020;-37
2021/08/09 05:21:33;;;;;;;2.97;2.67;;;24.60;64.20;;;;;;5083125;28;20048;-37
2021/08/09 05:23:59;;;;;;;3.40;3.10;;;24.50;64.20;;;;;;5079769;28;20129;-37
2021/08/09 05:26:25;;;;;;;3.28;2.97;;;24.50;64.20;;;;;;5082860;28;20077;-37
2021/08/09 05:28:52;;;;;;;3.25;2.92;;;24.50;64.20;;;;;;5082964;28;20039;-37
2021/08/09 05:31:18;;;;;;;3.30;3.00;;;24.50;64.30;;;;;;5075496;28;20025;-37
2021/08/09 05:33:44;;;;;;;3.10;2.90;;;24.60;64.50;;;;;;5062974;28;20051;-37
2021/08/09 05:36:10;;;;;;;3.13;2.83;;;24.50;64.30;;;;;;5059759;28;20025;-37
2021/08/09 05:38:36;;;;;;;3.03;2.80;;;24.60;64.50;;;;;;5041513;28;20030;-37
2021/08/09 05:41:03;;;;;;;3.30;3.00;;;24.60;64.50;;;;;;5042880;28;20026;-37
2021/08/09 05:43:29;;;;;;;3.20;2.90;;;24.50;64.40;;;;;;5042617;28;20040;-37
2021/08/09 05:45:56;;;;;;;3.20;2.92;;;24.60;64.50;;;;;;5042713;28;20267;-38
2021/08/09 05:48:22;;;;;;;3.03;2.72;;;24.60;64.60;;;;;;5041382;28;20041;-37
2021/08/09 05:50:48;;;;;;;3.20;2.90;;;24.60;64.50;;;;;;5042753;28;20113;-37
2021/08/09 05:53:14;;;;;;;3.38;3.08;;;24.60;64.60;;;;;;5042606;28;20041;-37
2021/08/09 05:55:40;;;;;;;3.75;2.60;;;24.60;64.50;;;;;;5042582;28;20057;-37
2021/08/09 05:58:06;;;;;;;3.50;3.20;;;24.50;64.40;;;;;;5042558;28;20481;-37
2021/08/09 06:00:33;;;;;;;3.58;2.95;;;24.60;64.40;;;;;;5048159;28;20098;-37
2021/08/09 06:03:00;;;;;;;3.33;3.03;;;24.60;64.40;;;;;;5082169;28;20028;-37
2021/08/09 06:05:27;;;;;;;2.92;2.72;;;24.60;64.40;;;;;;5082470;28;20052;-37
2021/08/09 06:07:53;;;;;;;3.50;2.70;;;24.60;65.10;;;;;;5064977;28;20114;-37
2021/08/09 06:10:21;;;;;;;2.83;2.63;;;24.60;64.40;;;;;;5064075;28;20025;-37
2021/08/09 06:12:48;;;;;;;3.97;3.50;;;24.60;64.40;;;;;;5066629;28;20335;-38
2021/08/09 06:15:14;;;;;;;3.63;3.30;;;24.60;64.50;;;;;;5065331;28;20027;-37
2021/08/09 06:17:40;;;;;;;3.50;3.20;;;24.60;64.60;;;;;;5065033;28;20033;-37
2021/08/09 06:20:07;;;;;;;3.60;3.30;;;24.60;64.60;;;;;;5066563;28;20102;-37
2021/08/09 06:22:33;;;;;;;3.20;2.90;;;24.60;64.60;;;;;;5066138;28;20060;-37
2021/08/09 06:24:59;;;;;;;3.35;3.05;;;24.60;64.60;;;;;;5066476;28;20029;-37
2021/08/09 06:27:26;;;;;;;3.60;3.30;;;24.60;64.60;;;;;;5066253;28;20653;-37
2021/08/09 06:29:52;;;;;;;3.60;3.30;;;24.60;64.70;;;;;;5066539;28;20029;-37
2021/08/09 06:32:18;;;;;;;3.38;3.08;;;24.60;64.60;;;;;;5066504;28;20067;-37
2021/08/09 06:34:44;;;;;;;3.40;3.10;;;24.60;64.70;;;;;;5066272;28;20029;-37
2021/08/09 06:37:10;;;;;;;3.33;3.03;;;24.60;64.60;;;;;;5054687;28;20041;-37
2021/08/09 06:39:36;;;;;;;3.42;3.13;;;24.60;64.60;;;;;;5046289;28;20120;-37
2021/08/09 06:42:04;;;;;;;3.40;3.10;;;24.60;64.60;;;;;;5062093;28;20023;-37
2021/08/09 06:44:33;;;;;;;4.53;3.40;;;24.60;64.60;;;;;;5066028;28;20029;-38
2021/08/09 06:47:00;;;;;;;3.63;3.33;;;24.50;64.60;;;;;;5065806;28;20029;-37
2021/08/09 06:49:26;;;;;;;3.75;3.42;;;24.50;64.50;;;;;;5066139;28;20037;-37
2021/08/09 06:51:52;;;;;;;3.50;3.20;;;24.60;64.60;;;;;;5064865;28;20424;-37
2021/08/09 06:54:20;;;;;;;3.28;2.97;;;24.60;64.60;;;;;;5064521;28;20040;-37
2021/08/09 06:56:47;;;;;;;3.33;3.03;;;24.60;64.60;;;;;;5064593;28;20036;-37
2021/08/09 06:59:13;;;;;;;4.60;3.20;;;24.60;64.60;;;;;;5065747;28;20025;-37
2021/08/09 07:01:39;;;;;;;4.40;3.95;;;24.50;64.70;;;;;;5065722;28;20052;-37
2021/08/09 07:04:05;;;;;;;3.78;3.45;;;24.50;64.80;;;;;;5065946;28;20111;-37
2021/08/09 07:06:32;;;;;;;3.50;3.20;;;24.60;64.90;;;;;;5071432;28;20020;-37
2021/08/09 07:09:00;;;;;;;3.80;3.50;;;24.60;64.90;;;;;;5085428;28;20101;-37
2021/08/09 07:11:26;;;;;;;4.13;3.60;;;24.60;64.80;;;;;;5085625;28;20025;-37
2021/08/09 07:13:52;;;;;;;4.10;3.70;;;24.60;64.80;;;;;;5085556;28;20060;-37
2021/08/09 07:16:24;;;;;;;3.77;3.40;;;24.60;64.80;;;;;;5072500;28;20747;-37
2021/08/09 07:18:51;;;;;;;3.50;3.20;;;24.60;64.90;;;;;;5065235;28;20036;-37
2021/08/09 07:21:17;;;;;;;3.90;3.50;;;24.60;64.90;;;;;;5065015;28;20047;-37
2021/08/09 07:23:43;;;;;;;3.70;3.40;;;24.50;64.90;;;;;;5065194;28;20037;-37
2021/08/09 07:26:09;;;;;;;3.83;3.42;;;24.60;65.00;;;;;;5065470;28;20044;-37
2021/08/09 07:28:36;;;;;;;4.60;4.03;;;24.50;65.00;;;;;;5063905;28;20041;-37
2021/08/09 07:31:02;;;;;;;3.93;3.63;;;24.60;65.10;;;;;;5065285;28;20032;-37
2021/08/09 07:33:28;;;;;;;3.93;3.60;;;24.50;65.00;;;;;;5065352;28;20071;-37
2021/08/09 07:35:54;;;;;;;4.13;3.73;;;24.60;65.10;;;;;;5064495;28;20065;-37
2021/08/09 07:38:20;;;;;;;4.25;3.85;;;24.50;65.00;;;;;;5044876;28;20064;-37
2021/08/09 07:40:47;;;;;;;4.10;3.72;;;24.50;65.00;;;;;;5045270;28;20056;-37
2021/08/09 07:43:13;;;;;;;3.80;3.50;;;24.50;65.00;;;;;;5044939;28;20089;-37
2021/08/09 07:45:39;;;;;;;3.85;3.40;;;24.50;65.10;;;;;;5044881;28;20053;-37
2021/08/09 07:48:06;;;;;;;4.10;3.70;;;24.50;65.00;;;;;;5044778;28;20037;-37
2021/08/09 07:50:32;;;;;;;3.97;3.58;;;24.50;65.00;;;;;;5045008;28;20030;-37
2021/08/09 07:52:58;;;;;;;4.10;3.70;;;24.50;65.20;;;;;;5044779;28;20025;-37
2021/08/09 07:55:25;;;;;;;4.20;3.80;;;24.50;65.30;;;;;;5062832;28;20032;-37
2021/08/09 07:57:52;;;;;;;4.20;3.80;;;24.50;65.20;;;;;;5067588;28;20033;-37
2021/08/09 08:00:18;;;;;;;4.10;3.70;;;24.50;65.30;;;;;;5064660;28;20481;-37
2021/08/09 08:02:45;;;;;;;4.03;3.63;;;24.50;65.40;;;;;;5064736;28;20124;-37
2021/08/09 08:05:11;;;;;;;4.22;3.83;;;24.50;65.40;;;;;;5064515;28;20021;-37
2021/08/09 08:07:37;;;;;;;4.67;4.17;;;24.50;65.40;;;;;;5077917;28;20054;-37
2021/08/09 08:10:03;;;;;;;4.97;4.07;;;24.50;65.20;;;;;;5084338;28;20343;-37
2021/08/09 08:12:30;;;;;;;4.57;4.17;;;24.50;65.20;;;;;;5084525;28;20042;-37
2021/08/09 08:14:56;;;;;;;4.30;3.90;;;24.50;65.30;;;;;;5084446;28;20028;-37
2021/08/09 08:17:23;;;;;;;4.45;4.05;;;24.50;65.30;;;;;;5084649;28;20086;-38
2021/08/09 08:19:50;;;;;;;4.38;3.97;;;24.50;65.10;;;;;;5084304;28;20036;-37
2021/08/09 08:22:16;;;;;;;4.05;3.70;;;24.50;65.00;;;;;;5084431;28;20074;-37
2021/08/09 08:24:42;;;;;;;4.20;3.80;;;24.50;65.00;;;;;;5084184;28;20059;-38
2021/08/09 08:27:09;;;;;;;4.43;4.03;;;24.50;65.00;;;;;;5084208;28;20029;-37
2021/08/09 08:29:35;;;;;;;4.95;4.00;;;24.50;65.00;;;;;;5084147;28;20066;-38
2021/08/09 08:32:01;;;;;;;4.20;3.80;;;24.50;64.90;;;;;;5083792;28;20029;-37
2021/08/09 08:34:27;;;;;;;4.13;3.72;;;24.50;64.80;;;;;;5083927;28;20016;-37
2021/08/09 08:36:53;;;;;;;4.20;3.63;;;24.50;64.90;;;;;;5075381;28;20382;-38
2021/08/09 08:39:19;;;;;;;4.00;3.67;;;24.40;64.90;;;;;;5063797;28;20085;-38
2021/08/09 08:41:45;;;;;;;4.32;3.92;;;24.50;64.90;;;;;;5063903;28;20063;-37
2021/08/09 08:44:19;;;;;;;4.32;3.67;;;24.40;64.90;;;;;;5063978;28;20405;-37
2021/08/09 08:46:45;;;;;;;4.40;4.00;;;24.50;65.00;;;;;;5063816;28;20028;-37
2021/08/09 08:49:14;;;;;;;4.10;3.70;;;24.40;64.90;;;;;;5063693;28;20029;-36
2021/08/09 08:51:45;;;;;;;3.95;3.63;;;24.40;64.90;;;;;;5070574;28;20024;-37
2021/08/09 08:54:14;;;;;;;5.35;4.10;;;24.40;65.00;;;;;;5083559;28;20033;-37
2021/08/09 08:56:41;;;;;;;4.45;3.95;;;24.40;65.00;;;;;;5082430;28;20025;-37
2021/08/09 08:59:11;;;;;;;4.10;3.70;;;24.40;65.60;;;;;;5083308;28;20024;-37
2021/08/09 09:01:42;;;;;;;4.03;3.63;;;24.40;64.70;;;;;;5073411;28;20033;-37
2021/08/09 09:04:25;;;;;;;4.35;3.95;;;24.40;64.70;;;;;;5063574;28;20031;-37
2021/08/09 09:07:02;;;;;;;5.22;4.10;;;24.40;64.70;;;;;;5071979;28;20036;-38
2021/08/09 09:09:29;;;;;;;4.30;3.88;;;24.40;64.70;;;;;;5083067;28;20028;-37
2021/08/09 09:11:56;;;;;;;4.28;3.88;;;24.40;64.70;;;;;;5042930;28;20089;-37
2021/08/09 09:14:27;;;;;;;4.90;4.10;;;24.40;64.70;;;;;;5042199;28;20486;-37
2021/08/09 09:16:53;;;;;;;4.57;4.18;;;24.40;64.70;;;;;;5043300;28;20566;-38
2021/08/09 09:19:35;;;;;;;4.20;3.80;;;24.40;64.60;;;;;;5043232;28;20037;-38
2021/08/09 09:22:03;;;;;;;4.43;4.03;;;24.40;64.70;;;;;;5063196;28;20060;-38
2021/08/09 09:24:29;;;;;;;4.38;3.97;;;24.40;64.70;;;;;;5063432;28;20028;-38
2021/08/09 09:27:08;;;;;;;4.82;4.32;;;24.40;64.70;;;;;;5063236;28;20017;-37
2021/08/09 09:29:36;;;;;;;4.20;3.80;;;24.40;64.70;;;;;;5063110;28;20123;-38
2021/08/09 09:32:16;;;;;;;4.45;4.05;;;24.30;64.70;;;;;;5076821;28;20029;-37
2021/08/09 09:35:09;;;;;;;4.43;4.03;;;24.30;64.70;;;;;;5083184;28;20796;-37
2021/08/09 09:37:36;;;;;;;4.20;3.80;;;24.30;64.70;;;;;;5081082;28;20033;-38
2021/08/09 09:40:15;;;;;;;4.70;4.30;;;24.30;64.70;;;;;;5078011;28;20091;-38
2021/08/09 09:42:41;;;;;;;4.68;4.05;;;24.30;64.70;;;;;;5063204;28;20025;-37
2021/08/09 09:45:24;;;;;;;4.30;3.90;;;24.30;64.70;;;;;;5062885;28;20032;-37
2021/08/09 09:48:06;;;;;;;4.38;3.97;;;24.30;64.70;;;;;;5062741;28;20060;-37
2021/08/09 09:50:33;;;;;;;4.28;3.88;;;24.30;64.80;;;;;;5062628;28;20115;-37
2021/08/09 09:53:13;;;;;;;3.90;3.60;;;24.30;64.80;;;;;;5062788;28;20033;-37
2021/08/09 09:55:40;;;;;;;4.90;4.40;;;24.30;64.80;;;;;;5062640;28;20079;-37
2021/08/09 09:58:06;;;;;;;4.95;4.07;;;24.30;64.80;;;;;;5064756;28;20037;-37
2021/08/09 10:00:32;;;;;;;4.38;3.97;;;24.30;64.80;;;;;;5062522;28;20025;-37
2021/08/09 10:02:58;;;;;;;4.32;3.92;;;24.30;64.90;;;;;;5061517;28;20041;-37
2021/08/09 10:05:25;;;;;;;4.40;4.00;;;24.30;64.80;;;;;;5062748;28;20025;-37
2021/08/09 10:07:51;;;;;;;6.35;3.97;;;24.30;64.90;;;;;;5062738;28;20143;-37
2021/08/09 10:10:22;;;;;;;4.03;3.60;;;24.30;64.90;;;;;;5067357;28;20044;-37
2021/08/09 10:12:48;;;;;;;4.32;3.92;;;24.30;64.90;;;;;;5081399;28;20040;-37
2021/08/09 10:15:19;;;;;;;4.70;4.30;;;24.20;64.90;;;;;;5081432;28;20104;-37
2021/08/09 10:17:46;;;;;;;5.68;4.38;;;24.20;64.90;;;;;;5082805;28;20063;-37
2021/08/09 10:20:12;;;;;;;5.32;3.97;;;24.20;64.90;;;;;;5082530;28;20028;-37
2021/08/09 10:22:39;;;;;;;4.57;4.18;;;24.20;64.90;;;;;;5081074;28;20098;-37
2021/08/09 10:25:06;;;;;;;4.45;4.03;;;24.20;65.00;;;;;;5082623;28;20111;-38
2021/08/09 10:27:47;;;;;;;4.80;4.30;;;24.20;65.00;;;;;;5082500;28;20048;-37
2021/08/09 10:30:21;;;;;;;4.20;3.80;;;24.20;65.00;;;;;;5082309;28;20044;-38
2021/08/09 10:32:57;;;;;;;4.35;3.95;;;24.20;65.00;;;;;;5062656;28;20024;-37
2021/08/09 10:35:39;;;;;;;4.72;4.32;;;24.10;64.90;;;;;;5062547;28;20033;-37
2021/08/09 10:38:19;;;;;;;4.95;4.40;;;24.20;65.00;;;;;;5062394;28;20025;-37
2021/08/09 10:40:47;;;;;;;4.95;4.43;;;24.20;65.00;;;;;;5072198;28;20043;-38
2021/08/09 10:43:13;;;;;;;4.68;4.28;;;24.10;65.00;;;;;;5082305;28;20044;-37
2021/08/09 10:45:49;;;;;;;4.60;4.20;;;24.20;65.00;;;;;;5081129;28;20060;-37
2021/08/09 10:48:16;;;;;;;5.05;4.55;;;24.10;65.00;;;;;;5070597;28;20100;-37
2021/08/09 10:50:45;;;;;;;4.70;4.30;;;24.10;65.00;;;;;;5044297;28;20024;-37
2021/08/09 10:53:28;;;;;;;4.80;4.30;;;24.10;65.10;;;;;;5062369;28;20048;-37
2021/08/09 10:55:57;;;;;;;4.93;4.43;;;24.10;65.10;;;;;;5062980;28;20514;-37
2021/08/09 10:58:42;;;;;;;4.95;4.45;;;24.10;65.10;;;;;;5066061;28;20783;-37
2021/08/09 11:01:11;;;;;;;5.20;4.57;;;24.10;65.10;;;;;;5065791;28;20048;-37
2021/08/09 11:04:02;;;;;;;4.60;4.20;;;24.10;65.10;;;;;;5066096;28;20025;-37
2021/08/09 11:06:54;;;;;;;4.57;4.13;;;24.10;65.10;;;;;;5065815;28;20025;-37
2021/08/09 11:09:33;;;;;;;4.60;4.20;;;24.10;65.10;;;;;;5064536;28;20040;-37
2021/08/09 11:12:21;;;;;;;5.63;4.70;;;24.10;65.20;;;;;;5045343;28;20064;-37
2021/08/09 11:15:12;;;;;;;5.03;4.53;;;24.10;65.20;;;;;;5045841;28;20029;-37
2021/08/09 11:17:38;;;;;;;4.32;3.92;;;24.10;65.20;;;;;;5045912;28;20037;-37
2021/08/09 11:20:12;;;;;;;4.95;4.50;;;24.00;65.10;;;;;;5045738;28;20025;-37
2021/08/09 11:22:39;;;;;;;4.78;4.38;;;24.00;65.20;;;;;;5045433;28;20048;-37
2021/08/09 11:25:23;;;;;;;4.88;4.15;;;24.00;65.10;;;;;;5065758;28;20064;-37
2021/08/09 11:28:16;;;;;;;4.63;4.20;;;24.00;65.20;;;;;;5085635;28;20036;-37
2021/08/09 11:30:49;;;;;;;4.80;4.38;;;24.00;65.20;;;;;;5082728;28;20055;-37
2021/08/09 11:33:38;;;;;;;4.80;4.30;;;24.00;65.20;;;;;;5065433;28;20032;-37
2021/08/09 11:36:09;;;;;;;5.00;4.50;;;24.00;65.20;;;;;;5065501;28;20029;-37
2021/08/09 11:38:49;;;;;;;4.43;4.03;;;24.00;65.20;;;;;;5065496;28;20033;-37
2021/08/09 11:41:16;;;;;;;5.20;4.65;;;24.00;65.20;;;;;;5079122;28;20028;-37
2021/08/09 11:43:43;;;;;;;5.20;4.70;;;24.00;65.20;;;;;;5085436;28;20028;-37
2021/08/09 11:46:10;;;;;;;4.38;3.97;;;24.00;65.20;;;;;;5085233;28;20043;-37
2021/08/09 11:48:38;;;;;;;5.00;4.50;;;24.00;65.20;;;;;;5085329;28;20040;-37
2021/08/09 11:51:06;;;;;;;5.38;4.68;;;24.00;65.20;;;;;;5085050;28;20419;-37
2021/08/09 11:53:33;;;;;;;5.28;4.78;;;24.00;66.00;;;;;;5085145;28;20100;-37
2021/08/09 11:56:22;;;;;;;5.15;4.53;;;24.00;65.40;;;;;;5083510;28;20036;-37
2021/08/09 11:58:48;;;;;;;5.05;4.55;;;24.00;65.30;;;;;;5084944;28;20120;-37
2021/08/09 12:01:41;;;;;;;5.13;4.63;;;24.00;65.30;;;;;;5077743;28;20033;-37
2021/08/09 12:04:14;;;;;;;4.75;4.25;;;24.00;65.30;;;;;;5064685;28;20029;-37
2021/08/09 12:06:57;;;;;;;5.40;4.90;;;23.90;65.30;;;;;;5064688;28;20036;-37
2021/08/09 12:09:36;;;;;;;4.95;4.30;;;23.90;65.30;;;;;;5079385;28;20036;-37
2021/08/09 12:12:04;;;;;;;5.22;4.72;;;24.00;65.40;;;;;;5044357;28;20423;-38
2021/08/09 12:14:32;;;;;;;4.85;4.35;;;23.90;65.30;;;;;;5044628;28;20033;-37
2021/08/09 12:17:01;;;;;;;;;;;23.90;65.30;;;;;;5045201;28;20033;-37
2021/08/09 12:19:40;;;;;;;5.57;4.68;;;23.90;65.30;;;;;;5044782;28;19924;-37
2021/08/09 12:22:14;;;;;;;5.28;4.47;;;23.90;65.30;;;;;;5044396;28;20064;-37
2021/08/09 12:24:44;;;;;;;5.20;4.70;;;23.90;65.30;;;;;;5044417;28;20021;-37
2021/08/09 12:27:18;;;;;;;4.88;4.38;;;23.90;65.30;;;;;;5049419;28;20033;-38
2021/08/09 12:30:14;;;;;;;4.85;4.40;;;23.90;65.30;;;;;;5064516;28;20064;-37
2021/08/09 12:32:43;;;;;;;4.70;4.30;;;23.90;65.30;;;;;;5064425;28;20140;-37
2021/08/09 12:35:10;;;;;;;4.90;4.40;;;23.90;65.30;;;;;;5064014;28;20076;-37
2021/08/09 12:37:37;;;;;;;;;;;23.90;65.40;;;;;;5064851;28;20037;-37
2021/08/09 12:40:13;;;;;;;4.80;4.35;;;23.90;65.30;;;;;;5100700;28;19905;-37
2021/08/09 12:42:40;;;;;;;4.70;4.28;;;23.90;65.40;;;;;;5083861;28;20029;-37
2021/08/09 12:45:07;;;;;;;;;;;23.90;65.40;;;;;;5084621;28;20373;-37
2021/08/09 12:47:33;;;;;;;4.93;4.53;;;23.90;65.30;;;;;;5082570;28;19962;-37
2021/08/09 12:49:59;;;;;;;5.03;4.60;;;23.90;65.40;;;;;;5084104;28;20025;-37
2021/08/09 12:52:26;;;;;;;5.35;4.85;;;23.90;65.30;;;;;;5084054;28;20088;-37
2021/08/09 12:54:52;;;;;;;5.20;4.47;;;23.90;65.30;;;;;;5082391;28;20027;-37
2021/08/09 12:57:18;;;;;;;4.68;4.28;;;23.90;65.30;;;;;;5076249;28;20025;-37